Archival Weather

Republic

Farmingdale, New York (KFRG)

Report from: Thursday, January 25, 2024 9:20 AM EST
Current time: Monday, June 17, 2024 2:51 AM EDT

Current weather – Weather history – Daily summaries
Weather forecast

Present weatherMist
Temperature10.6°C (51.1°F)
Dew point10.0°C (50.0°F)
Winds 3 kts (1.5 m/s, 3.5 mph) West-Southwest (240°)
Visibility1.5 mi. (2.4 km)
Clouds Ceiling: Broken clouds 1,200 ft. (366 m)
Overcast 1,700 ft. (518 m)
Altimeter30.13 in.Hg (1020 mB)
Relative humidity96 %
Density altitude-591 ft. (-180 m)
Remarks Automated weather observing station with precipitation discriminator
Flight conditions Instrument Meteorological Conditions
Raw dataKFRG 251420Z 24003KT 1 1/2SM BR BKN012 OVC017 11/10 A3013 RMK AO2 T01060100
An error has occurred. This application may no longer respond until reloaded. Reload 🗙